หน้าหลัก
METAR-TAF:

METAR-TAF

ท่าอากาศยาน :

Elim, อะแลสกา, สหรัฐอเมริกา

ละติจูด: 64-36-54N, ลองจิจูด: 162-16-14W, ความสูง: 49 ม.

การสังเกตสภาพอากาศปัจจุบัน

รายงานได้ทำขึ้นเมื่อ 45 นาทีที่แล้ว ณ เวลา 22:18 UTC
ลม 11 นอตจากเหนือ
อุณหภูมิ 5°C
ความชื้น 81%
ความกดอากาศ 1007 hPa
ทัศนวิสัย: 16.1 กม.
มีเมฆกระจายเป็นบางส่วนที่ความสูง 1700 ฟุต

METAR: PFEL 302218Z AUTO 01011KT 10SM SCT017 05/02 A2973 RMK AO2

เวลา: 15:03 (23:03 UTC)


TAF: หายไป

สังเกตการณ์สภาพอากาศและพยากรณ์อากาศของสนามบินมากกว่า 4000 แห่ง (รายงาน METAR และ TAF).

สถานีที่ดูได้จะแสดงไว้ด้วยจุดสีเหลืองและสีแดงบนแผนที่.

เลื่อนเมาส์ไปเหนือจุดเพื่อดูชื่อสถานี.

แล้วคลิกเพื่อดูสังเกตการณ์และการพยากรณ์สภาพอากาศ.

ในการเปลี่ยนแผนที่: คลิกที่ปุ่มสีเขียวที่มีกากบาทสีดำเพื่อซูมเข้า; ที่ปุ่มสีเขียวที่มีขีดเพื่อซูมออก; หรือที่ลูกศรสีเขียวเพื่อไปยังแผนที่ที่อยู่ติดกัน.


METAR-TAF: